Terminal Aerodrome Forecast
Issued by NWS

Home | Current Version | Previous Version | Text Only | Print | Product List | Glossary On
Versions: 1 2 3 4 5 6 7 8 9 10 11 12 13 14 15
178
FTUS41 KPBZ 300530
TAFFKL
TAF
KFKL 300530Z 3006/0106 10007KT P6SM VCSH OVC020
      TEMPO 3006/3009 2SM -SHRA BR OVC008
     FM301400 10012G25KT P6SM VCSH OVC020
     FM010100 10010KT P6SM VCSH BKN025
      AMD LTD TO CLD VIS AND WIND=

USA.gov is the U.S. government's official web portal to all federal, state and local government web resources and services.